Terminal Aerodrome Forecast
Issued by NWS Twin Cities, MN

Home | Current Version | Previous Version | Text Only | Print | Product List | Glossary On
Versions: 1 2 3 4 5 6 7 8 9 10 11 12 13 14 15 16 17 18 19 20 21 22 23 24 25 26 27
000
FTUS43 KMPX 291142
TAFMSP
TAF
KMSP 291142Z 2912/3018 17014G20KT P6SM BKN100
     FM291330 20016G24KT P6SM OVC040
     FM291600 27016G27KT P6SM -RA OVC030
     FM291900 30027G36KT P6SM SCT040
     FM292200 30023G30KT P6SM FEW100
     FM300200 28013KT P6SM SKC=

USA.gov is the U.S. government's official web portal to all federal, state and local government web resources and services.